createdAt,value
2018-06-04T00:00:32.309Z,21.80
2018-06-04T00:03:01.798Z,21.80
2018-06-04T00:05:31.149Z,21.80
2018-06-04T00:08:00.209Z,21.80
2018-06-04T00:10:29.353Z,21.80
2018-06-04T00:12:58.669Z,21.80
2018-06-04T00:15:27.873Z,21.70
2018-06-04T00:17:57.065Z,21.70
2018-06-04T00:20:26.504Z,21.70
2018-06-04T00:22:55.768Z,21.70
2018-06-04T00:25:30.738Z,21.60
2018-06-04T00:28:00.168Z,21.60
2018-06-04T00:30:29.444Z,21.60
2018-06-04T00:32:58.698Z,21.50
2018-06-04T00:35:27.976Z,21.50
2018-06-04T00:37:57.320Z,21.50
2018-06-04T00:40:26.379Z,21.50
2018-06-04T00:42:55.641Z,21.50
2018-06-04T00:45:24.958Z,21.40
2018-06-04T00:47:54.052Z,21.40
2018-06-04T00:50:23.224Z,21.40
2018-06-04T00:52:52.688Z,21.40
2018-06-04T00:55:22.187Z,21.40
2018-06-04T00:57:51.527Z,21.30
2018-06-04T01:00:20.788Z,21.50
2018-06-04T01:02:50.132Z,21.40
2018-06-04T01:05:19.464Z,21.30
2018-06-04T01:07:48.868Z,21.30
2018-06-04T01:10:18.136Z,21.30
2018-06-04T01:12:47.399Z,21.20
2018-06-04T01:15:16.564Z,21.20
2018-06-04T01:17:45.924Z,21.20
2018-06-04T01:20:15.213Z,21.20
2018-06-04T01:22:44.408Z,21.10
2018-06-04T01:25:13.760Z,21.10
2018-06-04T01:27:43.045Z,21.10
2018-06-04T01:30:12.229Z,21.10
2018-06-04T01:32:41.686Z,21.00
2018-06-04T01:35:10.995Z,21.00
2018-06-04T01:37:40.271Z,21.00
2018-06-04T01:40:09.412Z,21.00
2018-06-04T01:42:38.477Z,21.00
2018-06-04T01:45:07.729Z,21.00
2018-06-04T01:47:37.016Z,21.00
2018-06-04T01:50:06.356Z,21.00
2018-06-04T01:52:35.732Z,20.90
2018-06-04T01:55:04.880Z,20.90
2018-06-04T01:57:34.482Z,20.90
2018-06-04T02:00:03.917Z,20.90
2018-06-04T02:02:33.029Z,20.90
2018-06-04T02:05:02.244Z,20.80
2018-06-04T02:07:31.404Z,20.80
2018-06-04T02:10:00.678Z,20.70
2018-06-04T02:12:29.817Z,20.70
2018-06-04T02:14:59.329Z,20.80
2018-06-04T02:17:28.601Z,20.80
2018-06-04T02:19:57.872Z,20.70
2018-06-04T02:22:27.224Z,20.70
2018-06-04T02:24:56.533Z,20.70
2018-06-04T02:27:25.750Z,20.70
2018-06-04T02:29:55.013Z,20.60
2018-06-04T02:32:24.467Z,20.60
2018-06-04T02:34:53.748Z,20.60
2018-06-04T02:37:23.109Z,20.60
2018-06-04T02:39:52.375Z,20.50
2018-06-04T02:42:21.826Z,20.50
2018-06-04T02:44:50.896Z,20.50
2018-06-04T02:47:20.034Z,20.50
2018-06-04T02:49:49.120Z,20.50
2018-06-04T02:52:18.364Z,20.50
2018-06-04T02:54:48.040Z,20.50
2018-06-04T02:57:17.400Z,20.50
2018-06-04T02:59:47.005Z,20.40
2018-06-04T03:02:16.529Z,20.40
2018-06-04T03:04:45.626Z,20.40
2018-06-04T03:07:14.847Z,20.40
2018-06-04T03:09:44.045Z,20.30
2018-06-04T03:12:13.265Z,20.30
2018-06-04T03:14:42.676Z,20.30
2018-06-04T03:17:11.900Z,20.30
2018-06-04T03:19:41.237Z,20.30
2018-06-04T03:22:10.273Z,20.30
2018-06-04T03:24:39.509Z,20.20
2018-06-04T03:27:08.679Z,20.30
2018-06-04T03:29:37.941Z,20.30
2018-06-04T03:32:07.093Z,20.20
2018-06-04T03:34:36.151Z,20.20
2018-06-04T03:37:05.320Z,20.20
2018-06-04T03:39:34.577Z,20.20
2018-06-04T03:42:03.653Z,20.30
2018-06-04T03:44:32.780Z,20.30
2018-06-04T03:47:01.857Z,20.30
2018-06-04T03:49:31.105Z,20.30
2018-06-04T03:52:00.288Z,20.30
2018-06-04T03:54:29.537Z,20.30
2018-06-04T03:56:58.592Z,20.30
2018-06-04T03:59:27.952Z,20.30
2018-06-04T04:01:57.168Z,20.30
2018-06-04T04:04:26.477Z,20.40
2018-06-04T04:06:55.788Z,20.40
2018-06-04T04:09:25.060Z,20.40
2018-06-04T04:11:54.206Z,20.40
2018-06-04T04:14:23.416Z,20.40
2018-06-04T04:16:52.729Z,20.50
2018-06-04T04:19:21.847Z,20.50
2018-06-04T04:21:51.142Z,20.50
2018-06-04T04:24:20.466Z,20.60
2018-06-04T04:26:49.781Z,20.70
2018-06-04T04:29:19.049Z,20.70
2018-06-04T04:31:48.408Z,20.70
2018-06-04T04:34:17.586Z,20.70
2018-06-04T04:36:47.045Z,21.10
2018-06-04T04:39:16.316Z,21.90
2018-06-04T04:41:45.520Z,21.40
2018-06-04T04:44:14.730Z,22.30
2018-06-04T04:46:44.032Z,21.30
2018-06-04T04:49:13.264Z,23.30
2018-06-04T04:51:42.653Z,23.70
2018-06-04T04:54:12.195Z,22.10
2018-06-04T04:56:41.619Z,23.70
2018-06-04T04:59:10.940Z,23.70
2018-06-04T05:01:40.014Z,23.20
2018-06-04T05:04:09.467Z,24.50
2018-06-04T05:06:38.645Z,23.40
2018-06-04T05:09:09.364Z,23.30
2018-06-04T05:11:38.675Z,24.30
2018-06-04T05:14:07.934Z,23.30
2018-06-04T05:16:37.704Z,23.90
2018-06-04T05:19:07.132Z,23.20
2018-06-04T05:21:36.611Z,22.00
2018-06-04T05:24:06.540Z,23.20
2018-06-04T05:26:36.066Z,23.80
2018-06-04T05:29:05.489Z,23.80
2018-06-04T05:31:34.865Z,24.00
2018-06-04T05:34:04.204Z,24.50
2018-06-04T05:36:33.473Z,22.90
2018-06-04T05:39:02.713Z,22.50
2018-06-04T05:41:32.020Z,21.80
2018-06-04T05:44:01.348Z,22.60
2018-06-04T05:46:30.492Z,22.10
2018-06-04T05:48:59.945Z,22.80
2018-06-04T05:51:29.028Z,22.60
2018-06-04T05:53:58.355Z,22.50
2018-06-04T05:56:27.560Z,23.60
2018-06-04T05:58:56.908Z,23.50
2018-06-04T06:01:26.058Z,24.50
2018-06-04T06:03:55.720Z,25.00
2018-06-04T06:06:25.048Z,23.80
2018-06-04T06:08:54.659Z,23.80
2018-06-04T06:11:23.988Z,24.90
2018-06-04T06:13:53.171Z,24.10
2018-06-04T06:16:22.795Z,25.10
2018-06-04T06:18:51.910Z,25.00
2018-06-04T06:21:21.197Z,25.80
2018-06-04T06:23:50.540Z,24.80
2018-06-04T06:26:20.032Z,24.80
2018-06-04T06:28:49.412Z,26.00
2018-06-04T06:31:18.665Z,25.90
2018-06-04T06:33:47.929Z,26.10
2018-06-04T06:36:17.202Z,28.20
2018-06-04T06:38:46.818Z,27.10
2018-06-04T06:41:16.034Z,26.40
2018-06-04T06:43:45.322Z,27.10
2018-06-04T06:46:14.429Z,25.40
2018-06-04T06:48:43.908Z,25.80
2018-06-04T06:51:13.261Z,26.30
2018-06-04T06:53:42.436Z,26.50
2018-06-04T06:56:11.893Z,27.10
2018-06-04T06:58:41.273Z,26.00
2018-06-04T07:01:10.691Z,26.50
2018-06-04T07:03:39.900Z,26.00
2018-06-04T07:06:09.238Z,26.20
2018-06-04T07:08:38.380Z,27.90
2018-06-04T07:11:07.620Z,27.10
2018-06-04T07:13:36.826Z,25.60
2018-06-04T07:16:06.224Z,27.20
2018-06-04T07:18:35.815Z,27.20
2018-06-04T07:21:05.280Z,27.40
2018-06-04T07:23:34.627Z,28.10
2018-06-04T07:26:03.881Z,26.60
2018-06-04T07:28:33.266Z,26.80
2018-06-04T07:31:02.738Z,28.10
2018-06-04T07:33:32.521Z,28.10
2018-06-04T07:36:10.444Z,27.90
2018-06-04T07:38:40.141Z,28.60
2018-06-04T07:41:09.630Z,28.10
2018-06-04T07:43:39.026Z,28.30
2018-06-04T07:46:08.556Z,28.10
2018-06-04T07:48:37.956Z,28.00
2018-06-04T07:51:07.261Z,28.50
2018-06-04T07:53:36.620Z,27.60
2018-06-04T07:56:06.194Z,27.50
2018-06-04T07:58:36.488Z,26.70
2018-06-04T08:01:05.927Z,27.60
2018-06-04T08:03:35.505Z,26.00
2018-06-04T08:06:05.136Z,27.10
2018-06-04T08:08:34.560Z,27.90
2018-06-04T08:11:03.897Z,28.40
2018-06-04T08:13:33.200Z,29.40
2018-06-04T08:16:02.712Z,28.20
2018-06-04T08:18:31.952Z,28.50
2018-06-04T08:21:01.326Z,28.90
2018-06-04T08:23:30.832Z,28.20
2018-06-04T08:26:00.185Z,29.10
2018-06-04T08:28:29.620Z,29.20
2018-06-04T08:30:59.176Z,28.90
2018-06-04T08:33:28.646Z,29.20
2018-06-04T08:38:26.787Z,29.30
2018-06-04T08:40:56.125Z,28.30
2018-06-04T08:43:25.783Z,28.70
2018-06-04T08:45:55.302Z,29.50
2018-06-04T08:48:24.845Z,29.20
2018-06-04T08:50:54.569Z,27.20
2018-06-04T08:53:23.841Z,27.50
2018-06-04T08:55:53.218Z,29.40
2018-06-04T08:58:22.685Z,29.00
2018-06-04T09:00:52.061Z,28.40
2018-06-04T09:03:21.162Z,29.80
2018-06-04T09:05:50.349Z,29.20
2018-06-04T09:08:19.623Z,28.50
2018-06-04T09:10:48.821Z,28.70
2018-06-04T09:13:18.005Z,30.10
2018-06-04T09:15:47.318Z,30.70
2018-06-04T09:18:16.640Z,28.80
2018-06-04T09:20:46.080Z,28.50
2018-06-04T09:23:15.230Z,28.80
2018-06-04T09:25:44.399Z,28.70
2018-06-04T09:28:13.566Z,29.80
2018-06-04T09:30:42.716Z,28.60
2018-06-04T09:33:12.025Z,28.50
2018-06-04T09:35:41.336Z,28.20
2018-06-04T09:38:10.629Z,28.70
2018-06-04T09:40:39.764Z,29.60
2018-06-04T09:43:09.385Z,29.80
2018-06-04T09:45:38.659Z,30.00
2018-06-04T09:48:07.885Z,28.80
2018-06-04T09:50:37.108Z,29.20
2018-06-04T09:53:06.431Z,30.00
2018-06-04T09:55:35.488Z,27.90
2018-06-04T09:58:04.737Z,27.20
2018-06-04T10:00:34.846Z,28.00
2018-06-04T10:03:05.130Z,28.70
2018-06-04T10:05:34.497Z,28.40
2018-06-04T10:08:04.066Z,28.60
2018-06-04T10:10:33.309Z,30.20
2018-06-04T10:13:02.863Z,28.70
2018-06-04T10:15:32.083Z,29.20
2018-06-04T10:18:01.508Z,29.60
2018-06-04T10:20:30.813Z,28.50
2018-06-04T10:23:00.157Z,28.90
2018-06-04T10:25:29.451Z,27.80
2018-06-04T10:27:58.780Z,29.80
2018-06-04T10:30:28.126Z,29.00
2018-06-04T10:32:57.634Z,28.80
2018-06-04T10:35:27.019Z,30.50
2018-06-04T10:37:56.215Z,30.30
2018-06-04T10:40:25.467Z,29.40
2018-06-04T10:42:55.369Z,29.00
2018-06-04T10:45:24.913Z,29.20
2018-06-04T10:47:54.508Z,27.90
2018-06-04T10:50:23.780Z,28.50
2018-06-04T10:52:53.149Z,28.80
2018-06-04T10:55:22.534Z,30.00
2018-06-04T10:57:51.840Z,30.70
2018-06-04T11:00:21.137Z,28.50
2018-06-04T11:02:50.331Z,28.90
2018-06-04T11:05:19.793Z,27.60
2018-06-04T11:07:48.937Z,28.90
2018-06-04T11:10:18.520Z,27.70
2018-06-04T11:12:47.704Z,27.50
2018-06-04T11:15:16.928Z,28.70
2018-06-04T11:17:46.351Z,29.90
2018-06-04T11:20:15.589Z,30.00
2018-06-04T11:22:44.938Z,30.40
2018-06-04T11:25:14.364Z,30.90
2018-06-04T11:27:43.658Z,28.40
2018-06-04T11:30:12.648Z,28.10
2018-06-04T11:32:42.106Z,28.70
2018-06-04T11:35:11.301Z,29.60
2018-06-04T11:37:40.533Z,30.10
2018-06-04T11:40:10.613Z,29.90
2018-06-04T11:42:40.398Z,30.60
2018-06-04T11:45:09.680Z,30.70
2018-06-04T11:47:39.509Z,30.80
2018-06-04T11:50:08.908Z,29.20
2018-06-04T11:52:38.132Z,28.30
2018-06-04T11:55:07.193Z,28.10
2018-06-04T12:00:05.856Z,30.20
2018-06-04T12:02:35.284Z,30.20
2018-06-04T12:05:04.860Z,29.40
2018-06-04T12:07:34.748Z,30.20
2018-06-04T12:10:04.481Z,29.60
2018-06-04T12:12:34.145Z,29.50
2018-06-04T12:15:03.798Z,29.10
2018-06-04T12:17:33.424Z,29.40
2018-06-04T12:20:03.088Z,29.70
2018-06-04T12:22:32.961Z,29.50
2018-06-04T12:25:02.805Z,30.00
2018-06-04T12:27:32.722Z,28.90
2018-06-04T12:30:02.756Z,28.10
2018-06-04T12:32:32.344Z,27.60
2018-06-04T12:35:01.997Z,27.80
2018-06-04T12:37:31.939Z,27.70
2018-06-04T12:40:01.636Z,28.20
2018-06-04T12:42:31.178Z,29.90
2018-06-04T12:45:00.876Z,30.00
2018-06-04T12:47:30.256Z,28.90
2018-06-04T12:50:00.520Z,28.40
2018-06-04T12:52:29.970Z,27.70
2018-06-04T12:54:59.456Z,28.60
2018-06-04T12:57:29.152Z,29.10
2018-06-04T12:59:59.291Z,28.80
2018-06-04T13:02:28.929Z,29.60
2018-06-04T13:04:59.002Z,28.90
2018-06-04T13:07:29.804Z,27.90
2018-06-04T13:09:59.692Z,28.00
2018-06-04T13:12:29.502Z,28.10
2018-06-04T13:14:59.209Z,27.40
2018-06-04T13:17:29.527Z,26.70
2018-06-04T13:19:58.731Z,27.20
2018-06-04T13:22:28.298Z,27.00
2018-06-04T13:24:57.705Z,27.20
2018-06-04T13:27:27.243Z,27.80
2018-06-04T13:29:56.666Z,27.60
2018-06-04T13:32:25.972Z,28.50
2018-06-04T13:34:55.216Z,28.60
2018-06-04T13:37:24.493Z,28.40
2018-06-04T13:39:53.653Z,28.30
2018-06-04T13:42:23.086Z,28.90
2018-06-04T13:44:52.390Z,28.10
2018-06-04T13:47:21.867Z,28.20
2018-06-04T13:49:50.994Z,27.80
2018-06-04T13:52:20.324Z,27.90
2018-06-04T13:54:49.408Z,27.20
2018-06-04T13:57:18.852Z,27.70
2018-06-04T13:59:48.124Z,27.20
2018-06-04T14:02:17.383Z,27.50
2018-06-04T14:04:46.584Z,27.70
2018-06-04T14:07:15.793Z,28.00
2018-06-04T14:09:45.203Z,27.80
2018-06-04T14:12:14.513Z,28.40
2018-06-04T14:14:43.932Z,29.50
2018-06-04T14:17:13.682Z,28.70
2018-06-04T14:19:43.133Z,29.30
2018-06-04T14:22:12.874Z,30.20
2018-06-04T14:24:42.541Z,30.60
2018-06-04T14:27:12.134Z,29.80
2018-06-04T14:29:41.707Z,28.80
2018-06-04T14:32:12.135Z,26.90
2018-06-04T14:34:42.233Z,27.10
2018-06-04T14:37:12.489Z,27.00
2018-06-04T14:39:42.164Z,26.90
2018-06-04T14:42:12.352Z,27.40
2018-06-04T14:44:41.908Z,27.50
2018-06-04T14:47:11.474Z,28.60
2018-06-04T14:49:40.987Z,27.70
2018-06-04T14:52:10.789Z,28.40
2018-06-04T14:54:40.124Z,28.40
2018-06-04T14:57:09.628Z,28.00
2018-06-04T14:59:39.332Z,27.90
2018-06-04T15:02:08.712Z,27.70
2018-06-04T15:04:38.076Z,28.60
2018-06-04T15:07:14.040Z,27.80
2018-06-04T15:09:43.340Z,27.80
2018-06-04T15:12:12.600Z,28.50
2018-06-04T15:14:41.883Z,27.80
2018-06-04T15:17:11.092Z,28.20
2018-06-04T15:19:40.324Z,28.60
2018-06-04T15:22:09.385Z,28.20
2018-06-04T15:24:38.645Z,28.40
2018-06-04T15:27:07.946Z,27.60
2018-06-04T15:29:37.281Z,27.90
2018-06-04T15:32:06.580Z,28.10
2018-06-04T15:34:35.896Z,28.30
2018-06-04T15:37:05.290Z,28.50
2018-06-04T15:39:34.692Z,29.20
2018-06-04T15:42:04.489Z,28.70
2018-06-04T15:44:34.597Z,27.80
2018-06-04T15:47:04.109Z,29.20
2018-06-04T15:52:03.140Z,28.40
2018-06-04T15:54:32.556Z,28.50
2018-06-04T15:57:01.739Z,28.50
2018-06-04T15:59:30.933Z,29.00
2018-06-04T16:02:00.354Z,29.40
2018-06-04T16:04:29.703Z,29.30
2018-06-04T16:06:59.103Z,28.90
2018-06-04T16:09:28.441Z,27.30
2018-06-04T16:11:57.831Z,27.50
2018-06-04T16:14:27.004Z,27.30
2018-06-04T16:16:56.439Z,27.30
2018-06-04T16:19:25.525Z,27.10
2018-06-04T16:21:54.863Z,26.40
2018-06-04T16:24:24.032Z,26.90
2018-06-04T16:26:53.568Z,26.90
2018-06-04T16:29:22.777Z,26.80
2018-06-04T16:31:52.192Z,27.40
2018-06-04T16:34:21.544Z,28.00
2018-06-04T16:36:50.844Z,27.90
2018-06-04T16:39:20.111Z,27.40
2018-06-04T16:41:49.543Z,28.30
2018-06-04T16:44:18.861Z,28.20
2018-06-04T16:46:48.220Z,27.40
2018-06-04T16:49:17.716Z,26.50
2018-06-04T16:51:47.133Z,26.30
2018-06-04T16:54:16.399Z,26.30
2018-06-04T16:56:45.756Z,26.90
2018-06-04T16:59:15.028Z,27.00
2018-06-04T17:01:44.388Z,27.00
2018-06-04T17:04:13.435Z,26.90
2018-06-04T17:06:42.612Z,26.70
2018-06-04T17:09:11.948Z,26.00
2018-06-04T17:11:41.076Z,27.10
2018-06-04T17:14:10.229Z,27.40
2018-06-04T17:16:39.509Z,27.50
2018-06-04T17:19:08.648Z,26.60
2018-06-04T17:21:37.812Z,26.90
2018-06-04T17:24:07.993Z,26.90
2018-06-04T17:26:37.590Z,26.90
2018-06-04T17:29:07.143Z,26.30
2018-06-04T17:31:36.390Z,27.10
2018-06-04T17:34:05.773Z,26.70
2018-06-04T17:36:35.360Z,26.00
2018-06-04T17:39:06.289Z,26.10
2018-06-04T17:41:35.931Z,26.50
2018-06-04T17:44:05.339Z,26.60
2018-06-04T17:46:34.751Z,26.20
2018-06-04T17:49:04.209Z,26.60
2018-06-04T17:51:33.600Z,26.70
2018-06-04T17:54:03.176Z,27.70
2018-06-04T17:56:32.641Z,28.00
2018-06-04T17:59:02.154Z,28.50
2018-06-04T18:01:31.671Z,27.10
2018-06-04T18:04:01.092Z,27.30
2018-06-04T18:06:30.152Z,27.20
2018-06-04T18:08:59.480Z,26.40
2018-06-04T18:11:28.724Z,25.80
2018-06-04T18:13:58.104Z,25.80
2018-06-04T18:16:27.469Z,26.00
2018-06-04T18:18:56.628Z,25.50
2018-06-04T18:21:25.859Z,25.30
2018-06-04T18:23:55.590Z,24.80
2018-06-04T18:26:24.900Z,25.00
2018-06-04T18:28:54.044Z,24.90
2018-06-04T18:31:23.242Z,25.20
2018-06-04T18:36:21.334Z,24.70
2018-06-04T18:38:50.616Z,25.30
2018-06-04T18:41:20.060Z,25.90
2018-06-04T18:43:49.443Z,24.60
2018-06-04T18:46:18.804Z,25.00
2018-06-04T18:48:48.219Z,24.90
2018-06-04T18:51:17.519Z,24.90
2018-06-04T18:53:47.013Z,24.70
2018-06-04T18:56:16.459Z,24.70
2018-06-04T18:58:45.949Z,24.30
2018-06-04T19:01:15.288Z,24.50
2018-06-04T19:03:44.590Z,24.40
2018-06-04T19:06:14.024Z,24.10
2018-06-04T19:11:12.486Z,23.60
2018-06-04T19:13:41.880Z,24.50
2018-06-04T19:16:11.751Z,24.70
2018-06-04T19:18:41.351Z,25.10
2018-06-04T19:21:10.776Z,24.80
2018-06-04T19:23:40.265Z,24.70
2018-06-04T19:26:09.786Z,23.80
2018-06-04T19:28:39.239Z,23.70
2018-06-04T19:31:08.560Z,24.30
2018-06-04T19:33:39.054Z,24.40
2018-06-04T19:36:08.697Z,24.60
2018-06-04T19:38:38.040Z,23.90
2018-06-04T19:41:07.539Z,23.70
2018-06-04T19:43:36.660Z,24.00
2018-06-04T19:46:06.044Z,23.40
2018-06-04T19:48:35.325Z,23.10
2018-06-04T19:51:05.000Z,23.40
2018-06-04T19:53:34.341Z,23.40
2018-06-04T19:56:03.785Z,23.20
2018-06-04T19:58:33.140Z,22.90
2018-06-04T20:01:02.557Z,23.00
2018-06-04T20:03:31.873Z,22.80
2018-06-04T20:06:00.949Z,22.60
2018-06-04T20:08:30.400Z,22.40
2018-06-04T20:10:59.664Z,22.60
2018-06-04T20:13:28.940Z,23.30
2018-06-04T20:15:58.204Z,23.10
2018-06-04T20:18:27.557Z,22.90
2018-06-04T20:20:57.068Z,23.40
2018-06-04T20:23:26.733Z,23.30
2018-06-04T20:25:56.395Z,23.50
2018-06-04T20:28:25.955Z,23.40
2018-06-04T20:30:55.237Z,22.20
2018-06-04T20:33:24.399Z,22.60
2018-06-04T20:35:53.549Z,22.10
2018-06-04T20:38:22.615Z,22.10
2018-06-04T20:40:51.872Z,22.40
2018-06-04T20:43:21.136Z,22.80
2018-06-04T20:45:50.405Z,23.40
2018-06-04T20:48:19.777Z,22.60
2018-06-04T20:50:49.230Z,22.60
2018-06-04T20:53:18.517Z,22.30
2018-06-04T20:55:47.853Z,22.30
2018-06-04T20:58:17.272Z,22.10
2018-06-04T21:00:46.785Z,22.60
2018-06-04T21:03:16.283Z,22.10
2018-06-04T21:05:45.536Z,21.10
2018-06-04T21:08:15.004Z,21.00
2018-06-04T21:10:44.287Z,20.60
2018-06-04T21:13:13.544Z,21.00
2018-06-04T21:15:43.071Z,20.70
2018-06-04T21:18:12.364Z,20.50
2018-06-04T21:20:41.826Z,20.80
2018-06-04T21:23:12.549Z,20.90
2018-06-04T21:25:42.320Z,21.20
2018-06-04T21:28:11.770Z,21.30
2018-06-04T21:30:41.241Z,21.10
2018-06-04T21:33:10.483Z,21.40
2018-06-04T21:35:39.741Z,21.10
2018-06-04T21:38:08.846Z,20.70
2018-06-04T21:40:38.142Z,20.40
2018-06-04T21:43:07.592Z,20.70
2018-06-04T21:45:36.833Z,21.10
2018-06-04T21:48:06.070Z,21.10
2018-06-04T21:50:35.231Z,20.20
2018-06-04T21:53:04.608Z,20.30
2018-06-04T21:55:34.015Z,20.60
2018-06-04T21:58:03.225Z,20.80
2018-06-04T22:00:32.609Z,19.50
2018-06-04T22:03:01.778Z,19.80
2018-06-04T22:05:31.024Z,20.10
2018-06-04T22:08:00.168Z,19.90
2018-06-04T22:10:29.453Z,20.60
2018-06-04T22:12:58.700Z,21.10
2018-06-04T22:15:27.855Z,20.40
2018-06-04T22:17:57.204Z,20.80
2018-06-04T22:20:26.524Z,21.00
2018-06-04T22:22:55.834Z,20.20
2018-06-04T22:25:25.022Z,20.30
2018-06-04T22:27:54.357Z,20.30
2018-06-04T22:30:24.161Z,19.80
2018-06-04T22:32:53.493Z,19.70
2018-06-04T22:35:22.678Z,19.40
2018-06-04T22:37:52.023Z,19.20
2018-06-04T22:40:21.380Z,19.30
2018-06-04T22:42:50.539Z,19.50
2018-06-04T22:45:19.760Z,18.60
2018-06-04T22:47:48.947Z,18.90
2018-06-04T22:50:18.305Z,18.30
2018-06-04T22:52:47.548Z,19.00
2018-06-04T22:55:17.013Z,18.50
2018-06-04T22:57:46.293Z,18.70
2018-06-04T23:00:30.992Z,18.40
2018-06-04T23:03:00.157Z,18.70
2018-06-04T23:05:29.512Z,20.30
2018-06-04T23:07:58.888Z,19.30
2018-06-04T23:10:28.239Z,18.40
2018-06-04T23:12:57.419Z,18.30
2018-06-04T23:15:26.877Z,18.40
2018-06-04T23:17:56.025Z,18.10
2018-06-04T23:20:25.276Z,18.50
2018-06-04T23:22:54.582Z,18.70
2018-06-04T23:25:23.915Z,18.40
2018-06-04T23:27:53.093Z,18.40
2018-06-04T23:30:22.395Z,18.30
2018-06-04T23:32:58.296Z,18.30
2018-06-04T23:35:27.530Z,18.30
2018-06-04T23:37:56.831Z,18.10
2018-06-04T23:40:26.242Z,17.60
2018-06-04T23:42:55.648Z,17.60
2018-06-04T23:45:24.846Z,18.30
2018-06-04T23:47:53.977Z,18.50
2018-06-04T23:50:23.195Z,17.70
2018-06-04T23:52:52.474Z,17.70
2018-06-04T23:55:21.900Z,18.50
2018-06-04T23:57:51.004Z,17.30
